In Rescue
 
Open Full Screen Window  High Contrast Mode
July 23, 2019 12:44 AM EDT
Weather Information
Wind Direction
  ---
Wind Speed
  00 kt (0 mph)
Wind Gust
  00 kt (0 mph)
Altimeter
30.03 in
Visibility
10 SM
Temperature
16° C
61° F
Dewpoint
12° C
54° F
Humidity
77%
Sky Condition
Scattered @ 7,500 ft
VFR

METAR KRNP 230444Z AUTO 00000KT 10SM SCT075 16/12 A3003 RMK AO2 T01560121

FAA Disclaimer: The data displayed is for advisory purposes only and is not to be used for flight planning or operations.